createdAt,value
2019-05-16T00:00:01.412Z,1.20
2019-05-16T00:02:29.901Z,1.20
2019-05-16T00:04:59.154Z,1.07
2019-05-16T00:07:28.351Z,0.90
2019-05-16T00:09:58.883Z,1.30
2019-05-16T00:12:29.205Z,1.13
2019-05-16T00:14:58.172Z,1.20
2019-05-16T00:17:28.527Z,1.20
2019-05-16T00:19:58.899Z,1.10
2019-05-16T00:22:28.774Z,1.20
2019-05-16T00:24:58.048Z,1.20
2019-05-16T00:27:28.035Z,1.40
2019-05-16T00:29:58.118Z,1.53
2019-05-16T00:32:28.216Z,1.23
2019-05-16T00:34:58.367Z,1.20
2019-05-16T00:37:28.716Z,1.40
2019-05-16T00:39:58.819Z,1.40
2019-05-16T00:42:28.643Z,1.10
2019-05-16T00:44:58.381Z,1.40
2019-05-16T00:47:28.402Z,1.33
2019-05-16T00:49:58.225Z,1.33
2019-05-16T00:52:28.719Z,1.20
2019-05-16T00:54:57.994Z,1.37
2019-05-16T00:57:28.223Z,1.17
2019-05-16T00:59:59.026Z,1.83
2019-05-16T01:02:28.854Z,2.03
2019-05-16T01:04:58.984Z,1.60
2019-05-16T01:07:27.735Z,1.40
2019-05-16T01:09:58.302Z,1.60
2019-05-16T01:12:28.372Z,1.10
2019-05-16T01:14:58.491Z,1.33
2019-05-16T01:17:28.300Z,1.40
2019-05-16T01:19:57.885Z,1.37
2019-05-16T01:22:28.862Z,1.33
2019-05-16T01:24:58.523Z,1.17
2019-05-16T01:27:27.812Z,1.20
2019-05-16T01:29:58.214Z,1.50
2019-05-16T01:32:31.867Z,1.00
2019-05-16T01:34:58.731Z,1.37
2019-05-16T01:37:27.893Z,1.40
2019-05-16T01:39:58.613Z,1.50
2019-05-16T01:42:27.836Z,1.30
2019-05-16T01:44:57.830Z,1.23
2019-05-16T01:47:28.660Z,1.40
2019-05-16T01:49:58.068Z,1.20
2019-05-16T01:52:28.923Z,1.30
2019-05-16T01:54:58.631Z,1.63
2019-05-16T01:57:28.234Z,1.63
2019-05-16T01:59:58.984Z,1.73
2019-05-16T02:02:28.972Z,1.37
2019-05-16T02:04:58.907Z,1.40
2019-05-16T02:07:28.309Z,1.20
2019-05-16T02:09:58.229Z,1.53
2019-05-16T02:12:27.754Z,1.40
2019-05-16T02:14:58.589Z,1.43
2019-05-16T02:17:28.761Z,1.30
2019-05-16T02:19:57.789Z,1.47
2019-05-16T02:22:28.411Z,1.40
2019-05-16T02:24:58.538Z,1.57
2019-05-16T02:27:28.660Z,1.60
2019-05-16T02:29:56.823Z,1.70
2019-05-16T02:32:25.297Z,1.70
2019-05-16T02:34:54.263Z,1.53
2019-05-16T02:37:29.130Z,1.50
2019-05-16T02:39:54.532Z,1.47
2019-05-16T02:42:22.946Z,1.60
2019-05-16T02:44:51.402Z,1.47
2019-05-16T02:47:21.050Z,1.63
2019-05-16T02:49:50.468Z,1.70
2019-05-16T02:52:21.712Z,1.60
2019-05-16T02:54:51.739Z,1.70
2019-05-16T02:57:21.180Z,1.57
2019-05-16T02:59:50.895Z,1.70
2019-05-16T03:02:20.584Z,2.23
2019-05-16T03:04:51.830Z,2.37
2019-05-16T03:07:36.413Z,2.20
2019-05-16T03:09:51.405Z,1.67
2019-05-16T03:12:22.320Z,2.00
2019-05-16T03:14:54.643Z,1.67
2019-05-16T03:17:26.101Z,1.50
2019-05-16T03:19:57.574Z,2.00
2019-05-16T03:22:31.429Z,5.87
2019-05-16T03:25:01.046Z,7.90
2019-05-16T03:27:30.547Z,7.47
2019-05-16T03:30:01.784Z,6.63
2019-05-16T03:32:34.111Z,11.17
2019-05-16T03:35:04.835Z,8.13
2019-05-16T03:37:30.741Z,7.70
2019-05-16T03:40:00.587Z,5.87
2019-05-16T03:42:31.161Z,4.50
2019-05-16T03:45:02.140Z,5.63
2019-05-16T03:47:31.294Z,2.43
2019-05-16T03:50:00.649Z,2.23
2019-05-16T03:52:30.997Z,2.00
2019-05-16T03:55:01.726Z,1.87
2019-05-16T03:57:30.748Z,2.57
2019-05-16T04:00:00.634Z,1.80
2019-05-16T04:02:30.990Z,2.63
2019-05-16T04:05:01.840Z,2.03
2019-05-16T04:07:31.839Z,2.20
2019-05-16T04:10:02.328Z,1.83
2019-05-16T04:12:30.851Z,1.67
2019-05-16T04:15:01.772Z,1.53
2019-05-16T04:17:31.700Z,2.00
2019-05-16T04:20:02.105Z,1.83
2019-05-16T04:22:31.776Z,1.80
2019-05-16T04:25:01.982Z,1.87
2019-05-16T04:27:31.079Z,2.10
2019-05-16T04:30:01.515Z,2.00
2019-05-16T04:32:31.422Z,1.73
2019-05-16T04:35:02.469Z,1.93
2019-05-16T04:37:31.371Z,1.70
2019-05-16T04:40:01.385Z,1.90
2019-05-16T04:42:31.104Z,1.97
2019-05-16T04:45:01.203Z,1.40
2019-05-16T04:47:31.750Z,1.77
2019-05-16T04:50:01.605Z,1.57
2019-05-16T04:52:30.741Z,1.70
2019-05-16T04:55:00.809Z,3.00
2019-05-16T04:57:31.207Z,1.90
2019-05-16T05:00:02.303Z,2.13
2019-05-16T05:02:30.944Z,1.47
2019-05-16T05:05:01.309Z,1.93
2019-05-16T05:07:31.287Z,1.90
2019-05-16T05:10:00.755Z,1.60
2019-05-16T05:12:31.502Z,1.53
2019-05-16T05:15:01.211Z,2.53
2019-05-16T05:17:30.591Z,3.87
2019-05-16T05:20:01.177Z,2.53
2019-05-16T05:22:30.459Z,2.23
2019-05-16T05:25:00.112Z,1.43
2019-05-16T05:27:30.305Z,1.67
2019-05-16T05:30:01.027Z,1.43
2019-05-16T05:32:30.603Z,1.53
2019-05-16T05:34:59.890Z,1.83
2019-05-16T05:37:29.756Z,1.77
2019-05-16T05:39:59.925Z,1.60
2019-05-16T05:42:30.540Z,1.77
2019-05-16T05:45:00.338Z,1.20
2019-05-16T05:47:30.792Z,1.20
2019-05-16T05:50:00.646Z,1.33
2019-05-16T05:52:30.280Z,1.83
2019-05-16T05:55:00.749Z,1.17
2019-05-16T05:57:30.023Z,1.60
2019-05-16T06:00:00.500Z,1.50
2019-05-16T06:02:30.791Z,1.40
2019-05-16T06:04:59.758Z,1.33
2019-05-16T06:07:30.066Z,1.20
2019-05-16T06:10:00.398Z,1.50
2019-05-16T06:12:30.351Z,1.50
2019-05-16T06:15:07.877Z,1.83
2019-05-16T06:17:30.723Z,1.50
2019-05-16T06:20:00.283Z,1.37
2019-05-16T06:22:29.899Z,1.90
2019-05-16T06:25:00.918Z,1.50
2019-05-16T06:27:30.240Z,1.10
2019-05-16T06:30:00.549Z,1.60
2019-05-16T06:32:30.387Z,1.80
2019-05-16T06:35:00.097Z,1.43
2019-05-16T06:37:30.945Z,1.70
2019-05-16T06:40:00.690Z,1.60
2019-05-16T06:42:29.941Z,1.97
2019-05-16T06:45:00.746Z,1.77
2019-05-16T06:47:30.486Z,1.60
2019-05-16T06:50:00.235Z,1.63
2019-05-16T06:52:30.146Z,1.70
2019-05-16T06:55:00.759Z,1.70
2019-05-16T06:57:30.239Z,1.67
2019-05-16T07:00:00.673Z,1.80
2019-05-16T07:02:33.629Z,2.27
2019-05-16T07:05:01.136Z,2.10
2019-05-16T07:07:30.777Z,1.57
2019-05-16T07:10:04.237Z,2.40
2019-05-16T07:12:33.743Z,2.30
2019-05-16T07:15:01.331Z,2.07
2019-05-16T07:17:30.681Z,1.70
2019-05-16T07:20:00.761Z,2.10
2019-05-16T07:22:31.256Z,2.70
2019-05-16T07:25:00.035Z,2.70
2019-05-16T07:27:30.696Z,2.77
2019-05-16T07:30:01.050Z,3.23
2019-05-16T07:32:30.222Z,2.47
2019-05-16T07:35:00.310Z,2.90
2019-05-16T07:37:31.422Z,3.10
2019-05-16T07:40:04.140Z,3.20
2019-05-16T07:42:30.762Z,3.20
2019-05-16T07:45:00.812Z,3.00
2019-05-16T07:47:30.961Z,2.60
2019-05-16T07:49:59.645Z,2.80
2019-05-16T07:52:35.477Z,2.40
2019-05-16T07:55:00.270Z,2.67
2019-05-16T07:57:30.497Z,2.90
2019-05-16T08:00:00.141Z,3.17
2019-05-16T08:02:31.119Z,2.63
2019-05-16T08:05:00.712Z,3.03
2019-05-16T08:07:33.188Z,2.90
2019-05-16T08:09:59.875Z,2.90
2019-05-16T08:12:32.815Z,2.93
2019-05-16T08:15:00.754Z,2.87
2019-05-16T08:17:31.281Z,2.97
2019-05-16T08:20:00.040Z,2.60
2019-05-16T08:22:30.713Z,2.43
2019-05-16T08:25:00.200Z,2.10
2019-05-16T08:27:31.190Z,2.40
2019-05-16T08:30:02.094Z,2.73
2019-05-16T08:32:31.250Z,2.27
2019-05-16T08:35:01.129Z,2.37
2019-05-16T08:37:38.408Z,2.10
2019-05-16T08:42:32.341Z,2.10
2019-05-16T08:45:01.861Z,2.20
2019-05-16T08:47:32.048Z,2.00
2019-05-16T08:50:00.764Z,2.17
2019-05-16T08:50:05.960Z,2.40
2019-05-16T08:52:31.500Z,2.23
2019-05-16T08:55:03.083Z,2.10
2019-05-16T08:57:32.716Z,2.50
2019-05-16T09:00:01.357Z,2.40
2019-05-16T09:05:05.724Z,1.80
2019-05-16T09:10:00.527Z,2.10
2019-05-16T09:10:30.923Z,2.03
2019-05-16T09:10:34.821Z,2.20
2019-05-16T09:12:28.901Z,1.77
2019-05-16T09:14:59.297Z,2.10
2019-05-16T09:17:27.861Z,2.07
2019-05-16T09:19:57.700Z,2.30
2019-05-16T09:22:28.248Z,2.83
2019-05-16T09:24:57.716Z,2.70
2019-05-16T09:27:27.290Z,3.23
2019-05-16T09:29:57.829Z,2.73
2019-05-16T09:32:27.906Z,2.73
2019-05-16T09:34:57.544Z,3.20
2019-05-16T09:37:26.905Z,2.77
2019-05-16T09:39:57.272Z,2.77
2019-05-16T09:42:27.650Z,2.77
2019-05-16T09:44:57.736Z,2.63
2019-05-16T09:47:28.179Z,3.53
2019-05-16T09:50:00.743Z,3.37
2019-05-16T09:52:27.408Z,3.30
2019-05-16T09:54:57.725Z,3.90
2019-05-16T09:57:27.770Z,4.40
2019-05-16T09:59:57.233Z,3.43
2019-05-16T10:02:27.451Z,3.30
2019-05-16T10:04:58.054Z,3.20
2019-05-16T10:07:28.254Z,2.70
2019-05-16T10:09:57.166Z,2.50
2019-05-16T10:12:26.280Z,2.57
2019-05-16T10:14:54.822Z,2.53
2019-05-16T10:17:23.244Z,2.77
2019-05-16T10:19:51.653Z,2.70
2019-05-16T10:22:20.077Z,2.70
2019-05-16T10:24:48.487Z,3.07
2019-05-16T10:27:17.294Z,2.80
2019-05-16T10:29:48.378Z,2.90
2019-05-16T10:32:16.687Z,3.83
2019-05-16T10:34:46.688Z,3.70
2019-05-16T10:37:17.658Z,2.87
2019-05-16T10:39:46.914Z,3.47
2019-05-16T10:42:28.055Z,3.97
2019-05-16T10:44:48.372Z,5.30
2019-05-16T10:47:17.205Z,4.87
2019-05-16T10:49:47.622Z,6.10
2019-05-16T10:52:16.744Z,5.40
2019-05-16T10:54:55.266Z,5.07
2019-05-16T10:57:15.813Z,4.23
2019-05-16T11:00:01.885Z,4.50
2019-05-16T11:02:16.506Z,4.00
2019-05-16T11:04:57.405Z,4.47
2019-05-16T11:07:14.618Z,4.70
2019-05-16T11:09:54.743Z,4.47
2019-05-16T11:12:13.156Z,3.53
2019-05-16T11:14:41.569Z,4.67
2019-05-16T11:17:12.778Z,3.83
2019-05-16T11:19:40.121Z,3.57
2019-05-16T11:22:08.601Z,3.87
2019-05-16T11:24:37.755Z,4.10
2019-05-16T11:27:07.537Z,3.97
2019-05-16T11:29:36.646Z,4.03
2019-05-16T11:32:06.952Z,4.07
2019-05-16T11:34:37.262Z,3.60
2019-05-16T11:37:06.948Z,4.43
2019-05-16T11:39:37.123Z,3.83
2019-05-16T11:42:08.101Z,3.77
2019-05-16T11:44:38.100Z,4.77
2019-05-16T11:47:08.326Z,4.63
2019-05-16T11:49:36.871Z,4.10
2019-05-16T11:52:07.365Z,5.13
2019-05-16T11:54:37.450Z,5.63
2019-05-16T11:57:06.880Z,4.93
2019-05-16T11:59:37.356Z,5.13
2019-05-16T12:02:05.944Z,7.13
2019-05-16T12:04:34.357Z,5.20
2019-05-16T12:07:02.805Z,4.87
2019-05-16T12:09:34.249Z,4.30
2019-05-16T12:12:04.061Z,4.13
2019-05-16T12:14:31.487Z,4.40
2019-05-16T12:16:59.908Z,5.67
2019-05-16T12:19:34.246Z,5.40
2019-05-16T12:21:58.467Z,5.80
2019-05-16T12:24:36.426Z,6.27
2019-05-16T12:27:00.555Z,5.97
2019-05-16T12:29:28.147Z,6.03
2019-05-16T12:32:02.350Z,5.97
2019-05-16T12:34:26.915Z,4.90
2019-05-16T12:36:56.612Z,4.57
2019-05-16T12:39:26.856Z,4.40
2019-05-16T12:41:59.044Z,4.40
2019-05-16T12:44:26.906Z,5.27
2019-05-16T12:46:56.985Z,4.07
2019-05-16T12:49:25.555Z,4.33
2019-05-16T12:51:53.967Z,4.67
2019-05-16T12:54:22.404Z,4.43
2019-05-16T12:56:50.805Z,4.43
2019-05-16T12:59:21.531Z,5.27
2019-05-16T13:01:49.358Z,5.07
2019-05-16T13:04:18.909Z,5.60
2019-05-16T13:06:47.798Z,4.53
2019-05-16T13:09:18.463Z,4.23
2019-05-16T13:11:47.243Z,4.33
2019-05-16T13:14:16.895Z,4.87
2019-05-16T13:16:47.364Z,4.00
2019-05-16T13:19:18.125Z,4.07
2019-05-16T13:21:47.004Z,3.37
2019-05-16T13:24:33.697Z,3.50
2019-05-16T13:27:02.103Z,4.00
2019-05-16T13:29:30.523Z,3.80
2019-05-16T13:31:58.934Z,3.67
2019-05-16T13:34:28.177Z,3.93
2019-05-16T13:36:57.920Z,3.40
2019-05-16T13:39:27.611Z,3.27
2019-05-16T13:41:56.249Z,3.13
2019-05-16T13:44:27.287Z,3.57
2019-05-16T13:46:56.867Z,3.40
2019-05-16T13:49:26.813Z,3.23
2019-05-16T13:51:55.098Z,3.10
2019-05-16T13:54:23.528Z,3.03
2019-05-16T13:56:51.943Z,3.10
2019-05-16T13:59:20.361Z,2.57
2019-05-16T14:01:48.802Z,3.63
2019-05-16T14:04:17.527Z,3.60
2019-05-16T14:06:47.509Z,3.37
2019-05-16T14:09:16.370Z,3.60
2019-05-16T14:11:46.393Z,3.17
2019-05-16T14:14:25.578Z,3.67
2019-05-16T14:16:46.934Z,3.40
2019-05-16T14:19:17.447Z,3.43
2019-05-16T14:21:47.779Z,3.60
2019-05-16T14:24:18.017Z,3.53
2019-05-16T14:26:46.441Z,3.50
2019-05-16T14:29:17.464Z,3.07
2019-05-16T14:31:46.937Z,3.83
2019-05-16T14:34:18.089Z,3.53
2019-05-16T14:36:47.340Z,4.00
2019-05-16T14:39:18.909Z,3.17
2019-05-16T14:41:47.039Z,3.17
2019-05-16T14:44:18.341Z,3.20
2019-05-16T14:46:47.524Z,2.63
2019-05-16T14:49:17.239Z,2.97
2019-05-16T14:51:47.718Z,2.13
2019-05-16T14:54:15.918Z,2.70
2019-05-16T14:56:47.337Z,2.30
2019-05-16T14:59:14.465Z,2.30
2019-05-16T15:01:42.900Z,2.57
2019-05-16T15:04:11.315Z,2.20
2019-05-16T15:06:39.749Z,2.50
2019-05-16T15:09:08.942Z,2.13
2019-05-16T15:11:37.613Z,2.40
2019-05-16T15:14:07.137Z,2.43
2019-05-16T15:16:35.789Z,2.63
2019-05-16T15:19:04.273Z,2.40
2019-05-16T15:21:32.696Z,2.50
2019-05-16T15:24:01.106Z,2.23
2019-05-16T15:26:29.533Z,3.07
2019-05-16T15:28:59.137Z,2.33
2019-05-16T15:31:27.633Z,2.67
2019-05-16T15:33:57.269Z,2.43
2019-05-16T15:36:27.074Z,2.77
2019-05-16T15:38:56.675Z,2.30
2019-05-16T15:41:27.265Z,2.50
2019-05-16T15:43:59.096Z,2.33
2019-05-16T15:46:26.604Z,2.67
2019-05-16T15:48:56.991Z,2.30
2019-05-16T15:51:27.431Z,1.93
2019-05-16T15:53:57.194Z,2.70
2019-05-16T15:56:27.103Z,2.77
2019-05-16T15:58:55.656Z,2.30
2019-05-16T16:01:26.900Z,2.43
2019-05-16T16:03:54.215Z,1.90
2019-05-16T16:06:22.630Z,2.00
2019-05-16T16:08:51.036Z,1.77
2019-05-16T16:11:19.457Z,1.73
2019-05-16T16:13:48.660Z,1.73
2019-05-16T16:16:17.514Z,1.90
2019-05-16T16:18:46.837Z,2.10
2019-05-16T16:21:16.683Z,1.70
2019-05-16T16:23:47.379Z,2.20
2019-05-16T16:26:17.797Z,2.10
2019-05-16T16:28:45.540Z,2.27
2019-05-16T16:31:13.946Z,2.33
2019-05-16T16:33:42.367Z,2.27
2019-05-16T16:36:10.778Z,2.47
2019-05-16T16:38:39.205Z,2.70
2019-05-16T16:41:08.259Z,2.53
2019-05-16T16:43:37.406Z,2.60
2019-05-16T16:46:10.244Z,2.90
2019-05-16T16:48:36.035Z,2.23
2019-05-16T16:51:06.636Z,3.17
2019-05-16T16:53:34.704Z,3.60
2019-05-16T16:56:03.110Z,3.47
2019-05-16T16:58:31.557Z,3.47
2019-05-16T17:01:01.585Z,3.97
2019-05-16T17:03:30.100Z,3.80
2019-05-16T17:05:58.506Z,4.63
2019-05-16T17:08:27.390Z,4.33
2019-05-16T17:10:57.549Z,4.30
2019-05-16T17:13:27.624Z,4.20
2019-05-16T17:15:56.893Z,3.90
2019-05-16T17:18:27.627Z,3.87
2019-05-16T17:20:57.003Z,3.97
2019-05-16T17:23:26.434Z,4.17
2019-05-16T17:25:56.745Z,4.40
2019-05-16T17:28:25.388Z,4.30
2019-05-16T17:30:56.486Z,3.47
2019-05-16T17:33:23.949Z,4.50
2019-05-16T17:35:52.382Z,4.57
2019-05-16T17:38:20.807Z,4.63
2019-05-16T17:40:49.223Z,3.67
2019-05-16T17:43:17.640Z,4.00
2019-05-16T17:45:46.964Z,3.67
2019-05-16T17:48:17.569Z,3.70
2019-05-16T17:50:46.748Z,3.80
2019-05-16T17:53:17.334Z,3.90
2019-05-16T17:55:47.306Z,4.07
2019-05-16T17:58:16.503Z,4.30
2019-05-16T18:00:47.194Z,3.60
2019-05-16T18:03:17.412Z,4.60
2019-05-16T18:05:47.528Z,3.87
2019-05-16T18:08:15.929Z,4.00
2019-05-16T18:10:44.340Z,3.90
2019-05-16T18:13:12.792Z,4.27
2019-05-16T18:15:41.209Z,4.57
2019-05-16T18:18:09.624Z,4.97
2019-05-16T18:20:38.119Z,4.50
2019-05-16T18:23:07.251Z,4.70
2019-05-16T18:25:36.629Z,5.03
2019-05-16T18:28:07.718Z,4.70
2019-05-16T18:30:36.657Z,5.17
2019-05-16T18:33:07.410Z,4.93
2019-05-16T18:35:37.136Z,4.33
2019-05-16T18:38:07.193Z,4.13
2019-05-16T18:40:36.756Z,4.27
2019-05-16T18:43:08.285Z,5.17
2019-05-16T18:45:36.564Z,4.30
2019-05-16T18:48:07.260Z,5.27
2019-05-16T18:50:37.825Z,3.80
2019-05-16T18:53:07.237Z,4.33
2019-05-16T18:55:37.216Z,4.83
2019-05-16T18:58:08.478Z,5.70
2019-05-16T19:00:37.645Z,4.80
2019-05-16T19:03:07.680Z,5.87
2019-05-16T19:05:37.295Z,5.50
2019-05-16T19:08:07.416Z,5.90
2019-05-16T19:10:36.923Z,5.43
2019-05-16T19:13:07.982Z,5.80
2019-05-16T19:15:37.408Z,6.13
2019-05-16T19:18:06.715Z,5.27
2019-05-16T19:20:37.557Z,5.57
2019-05-16T19:23:07.439Z,5.33
2019-05-16T19:25:35.729Z,5.77
2019-05-16T19:28:06.536Z,5.10
2019-05-16T19:30:37.073Z,5.50
2019-05-16T19:33:06.912Z,5.77
2019-05-16T19:35:34.928Z,6.23
2019-05-16T19:38:03.315Z,6.67
2019-05-16T19:40:31.746Z,6.37
2019-05-16T19:43:00.155Z,6.67
2019-05-16T19:45:28.583Z,6.73
2019-05-16T19:47:57.996Z,8.10
2019-05-16T19:50:26.817Z,5.93
2019-05-16T19:52:56.666Z,6.93
2019-05-16T19:55:27.023Z,8.20
2019-05-16T19:57:57.207Z,6.73
2019-05-16T20:00:26.698Z,7.37
2019-05-16T20:02:56.895Z,7.47
2019-05-16T20:05:26.733Z,7.10
2019-05-16T20:07:55.488Z,7.87
2019-05-16T20:10:23.915Z,7.60
2019-05-16T20:12:52.325Z,7.27
2019-05-16T20:15:21.401Z,6.57
2019-05-16T20:17:54.202Z,8.10
2019-05-16T20:20:20.095Z,8.73
2019-05-16T20:22:48.530Z,7.97
2019-05-16T20:25:16.978Z,9.10
2019-05-16T20:27:47.007Z,8.67
2019-05-16T20:30:17.129Z,8.77
2019-05-16T20:32:45.759Z,9.70
2019-05-16T20:35:14.260Z,9.23
2019-05-16T20:37:42.676Z,8.70
2019-05-16T20:40:12.641Z,10.00
2019-05-16T20:42:41.295Z,9.37
2019-05-16T20:45:10.254Z,9.03
2019-05-16T20:47:38.683Z,10.07
2019-05-16T20:50:08.139Z,9.60
2019-05-16T20:52:37.908Z,9.30
2019-05-16T20:55:08.485Z,9.30
2019-05-16T20:57:37.710Z,10.00
2019-05-16T21:00:08.338Z,10.63
2019-05-16T21:02:37.902Z,11.33
2019-05-16T21:05:07.008Z,10.53
2019-05-16T21:07:37.464Z,11.60
2019-05-16T21:10:08.159Z,11.13
2019-05-16T21:12:40.167Z,11.10
2019-05-16T21:15:09.657Z,10.77
2019-05-16T21:17:38.108Z,10.77
2019-05-16T21:20:07.947Z,10.70
2019-05-16T21:22:37.257Z,12.87
2019-05-16T21:25:07.070Z,11.27
2019-05-16T21:27:37.843Z,11.40
2019-05-16T21:30:07.890Z,13.37
2019-05-16T21:32:36.856Z,13.93
2019-05-16T21:35:08.685Z,12.57
2019-05-16T21:37:37.543Z,13.20
2019-05-16T21:40:08.226Z,12.67
2019-05-16T21:42:36.847Z,12.40
2019-05-16T21:45:10.039Z,13.00
2019-05-16T21:47:38.482Z,12.47
2019-05-16T21:50:08.805Z,13.30
2019-05-16T21:52:37.247Z,12.77
2019-05-16T21:55:07.897Z,13.83
2019-05-16T21:57:37.732Z,13.47
2019-05-16T22:00:16.805Z,14.33
2019-05-16T22:02:46.688Z,15.43
2019-05-16T22:05:17.149Z,15.30
2019-05-16T22:07:47.344Z,15.00
2019-05-16T22:10:16.208Z,16.00
2019-05-16T22:12:44.638Z,16.00
2019-05-16T22:15:13.685Z,15.47
2019-05-16T22:17:42.117Z,15.40
2019-05-16T22:20:10.974Z,17.23
2019-05-16T22:22:39.417Z,16.83
2019-05-16T22:25:08.682Z,18.63
2019-05-16T22:27:37.145Z,16.83
2019-05-16T22:30:11.026Z,16.80
2019-05-16T22:32:39.563Z,15.93
2019-05-16T22:35:08.279Z,17.97
2019-05-16T22:37:49.269Z,17.70
2019-05-16T22:40:08.373Z,17.07
2019-05-16T22:42:37.507Z,17.63
2019-05-16T22:45:09.689Z,18.47
2019-05-16T22:47:38.100Z,17.27
2019-05-16T22:50:08.077Z,17.57
2019-05-16T22:52:36.859Z,17.50
2019-05-16T22:55:07.433Z,18.97
2019-05-16T22:57:35.994Z,17.17
2019-05-16T23:00:11.586Z,17.60
2019-05-16T23:02:39.997Z,16.33
2019-05-16T23:05:08.565Z,18.90
2019-05-16T23:07:36.981Z,17.70
2019-05-16T23:10:07.264Z,16.97
2019-05-16T23:12:37.149Z,15.63
2019-05-16T23:15:07.173Z,17.97
2019-05-16T23:17:37.517Z,19.20
2019-05-16T23:20:06.574Z,18.50
2019-05-16T23:22:36.685Z,16.43
2019-05-16T23:25:06.760Z,20.53
2019-05-16T23:27:36.764Z,18.13
2019-05-16T23:30:08.539Z,18.87
2019-05-16T23:32:36.950Z,18.80
2019-05-16T23:35:07.605Z,19.23
2019-05-16T23:37:37.055Z,19.83
2019-05-16T23:40:06.518Z,20.00
2019-05-16T23:42:36.918Z,17.03
2019-05-16T23:45:09.004Z,18.63
2019-05-16T23:47:37.538Z,19.37
2019-05-16T23:50:08.008Z,19.30
2019-05-16T23:52:36.913Z,19.57
2019-05-16T23:55:08.928Z,18.60
2019-05-16T23:57:37.745Z,19.60
